createdAt,value
2023-04-10T00:01:38.571Z,10.10
2023-04-10T00:04:06.279Z,10.00
2023-04-10T00:06:33.663Z,10.00
2023-04-10T00:09:02.510Z,10.00
2023-04-10T00:11:30.007Z,10.00
2023-04-10T00:13:57.333Z,9.90
2023-04-10T00:16:24.585Z,9.90
2023-04-10T00:18:51.919Z,9.90
2023-04-10T00:21:19.089Z,9.80
2023-04-10T00:23:46.375Z,9.80
2023-04-10T00:26:13.486Z,9.70
2023-04-10T00:28:42.359Z,9.70
2023-04-10T00:31:09.485Z,9.70
2023-04-10T00:33:37.172Z,9.60
2023-04-10T00:36:04.805Z,9.60
2023-04-10T00:38:32.215Z,9.60
2023-04-10T00:40:59.388Z,9.50
2023-04-10T00:43:27.276Z,9.50
2023-04-10T00:45:54.657Z,9.50
2023-04-10T00:48:22.397Z,9.50
2023-04-10T00:50:49.611Z,9.50
2023-04-10T00:53:17.254Z,9.40
2023-04-10T00:55:46.242Z,9.40
2023-04-10T00:58:14.617Z,9.40
2023-04-10T01:00:42.149Z,9.30
2023-04-10T01:03:13.105Z,9.30
2023-04-10T01:06:06.824Z,9.30
2023-04-10T01:08:45.133Z,9.20
2023-04-10T01:11:49.321Z,9.20
2023-04-10T01:14:30.521Z,9.20
2023-04-10T01:17:07.308Z,9.20
2023-04-10T01:20:18.533Z,9.20
2023-04-10T01:23:12.576Z,9.10
2023-04-10T01:25:54.417Z,9.10
2023-04-10T01:28:27.909Z,9.10
2023-04-10T01:31:01.290Z,9.10
2023-04-10T01:33:40.747Z,9.10
2023-04-10T01:36:11.338Z,9.10
2023-04-10T01:38:44.361Z,9.10
2023-04-10T01:41:13.262Z,9.10
2023-04-10T01:43:42.741Z,9.10
2023-04-10T01:46:12.554Z,9.10
2023-04-10T01:48:41.561Z,9.10
2023-04-10T01:51:11.265Z,9.10
2023-04-10T01:53:40.746Z,9.10
2023-04-10T01:56:09.401Z,9.10
2023-04-10T01:58:43.379Z,9.10
2023-04-10T02:01:22.367Z,9.10
2023-04-10T02:03:56.108Z,9.10
2023-04-10T02:06:50.511Z,9.10
2023-04-10T02:09:47.453Z,9.10
2023-04-10T02:12:30.271Z,9.10
2023-04-10T02:15:02.790Z,9.10
2023-04-10T02:17:32.692Z,9.10
2023-04-10T02:20:01.235Z,9.10
2023-04-10T02:22:29.118Z,9.10
2023-04-10T02:24:57.652Z,9.10
2023-04-10T02:27:32.646Z,9.10
2023-04-10T02:30:01.276Z,9.10
2023-04-10T02:32:30.101Z,9.10
2023-04-10T02:34:57.490Z,9.10
2023-04-10T02:37:26.226Z,9.10
2023-04-10T02:39:57.076Z,9.10
2023-04-10T02:42:26.373Z,9.10
2023-04-10T02:44:57.268Z,9.10
2023-04-10T02:47:25.910Z,9.10
2023-04-10T02:49:53.149Z,9.10
2023-04-10T02:52:20.807Z,9.10
2023-04-10T02:54:48.227Z,9.10
2023-04-10T02:57:16.740Z,9.10
2023-04-10T02:59:44.532Z,9.10
2023-04-10T03:02:13.150Z,9.10
2023-04-10T03:04:40.913Z,9.10
2023-04-10T03:07:08.640Z,9.10
2023-04-10T03:09:39.367Z,9.10
2023-04-10T03:12:06.781Z,9.10
2023-04-10T03:14:33.859Z,9.10
2023-04-10T03:17:01.298Z,9.00
2023-04-10T03:19:28.853Z,9.00
2023-04-10T03:21:56.267Z,9.00
2023-04-10T03:24:24.606Z,9.00
2023-04-10T03:26:52.494Z,9.00
2023-04-10T03:29:19.878Z,9.00
2023-04-10T03:31:47.317Z,9.00
2023-04-10T03:34:14.572Z,8.90
2023-04-10T03:36:41.973Z,8.90
2023-04-10T03:39:09.151Z,8.90
2023-04-10T03:41:36.847Z,8.90
2023-04-10T03:44:04.355Z,8.90
2023-04-10T03:46:31.818Z,8.90
2023-04-10T03:49:00.651Z,8.90
2023-04-10T03:51:31.567Z,8.90
2023-04-10T03:53:58.746Z,8.90
2023-04-10T03:56:26.114Z,8.90
2023-04-10T03:58:53.515Z,9.00
2023-04-10T04:01:22.029Z,9.00
2023-04-10T04:04:00.400Z,9.00
2023-04-10T04:06:47.103Z,9.00
2023-04-10T04:09:32.941Z,9.00
2023-04-10T04:12:35.962Z,9.00
2023-04-10T04:15:09.199Z,9.00
2023-04-10T04:17:52.199Z,9.00
2023-04-10T04:20:36.961Z,9.00
2023-04-10T04:23:22.607Z,9.10
2023-04-10T04:26:25.008Z,9.10
2023-04-10T04:29:15.660Z,9.00
2023-04-10T04:32:09.286Z,9.00
2023-04-10T04:34:57.472Z,9.00
2023-04-10T04:37:36.060Z,9.00
2023-04-10T04:40:35.803Z,9.00
2023-04-10T04:43:38.760Z,9.10
2023-04-10T04:46:25.104Z,9.10
2023-04-10T04:49:30.781Z,9.10
2023-04-10T04:52:17.254Z,9.10
2023-04-10T04:55:01.482Z,9.10
2023-04-10T04:57:37.112Z,9.00
2023-04-10T05:00:11.097Z,9.00
2023-04-10T05:02:58.847Z,8.90
2023-04-10T05:05:40.651Z,9.00
2023-04-10T05:08:46.903Z,9.00
2023-04-10T05:11:37.860Z,8.90
2023-04-10T05:14:20.480Z,9.00
2023-04-10T05:17:16.929Z,9.00
2023-04-10T05:20:06.073Z,9.00
2023-04-10T05:22:53.050Z,9.00
2023-04-10T05:25:41.008Z,9.00
2023-04-10T05:28:16.592Z,9.00
2023-04-10T05:31:19.049Z,9.00
2023-04-10T05:34:05.267Z,9.00
2023-04-10T05:36:39.623Z,9.00
2023-04-10T05:39:17.356Z,9.00
2023-04-10T05:42:03.596Z,9.00
2023-04-10T05:44:45.606Z,9.00
2023-04-10T05:47:36.267Z,9.00
2023-04-10T05:50:15.477Z,9.00
2023-04-10T05:53:00.422Z,9.00
2023-04-10T05:55:43.306Z,9.00
2023-04-10T05:58:28.589Z,9.00
2023-04-10T06:01:13.468Z,9.00
2023-04-10T06:03:52.665Z,8.90
2023-04-10T06:06:22.388Z,8.90
2023-04-10T06:08:50.180Z,8.90
2023-04-10T06:11:17.358Z,9.00
2023-04-10T06:13:48.904Z,9.00
2023-04-10T06:16:16.991Z,9.00
2023-04-10T06:18:46.534Z,9.00
2023-04-10T06:21:14.566Z,9.00
2023-04-10T06:23:42.134Z,9.00
2023-04-10T06:26:09.720Z,9.00
2023-04-10T06:28:37.696Z,9.00
2023-04-10T06:31:07.274Z,9.00
2023-04-10T06:33:37.090Z,9.10
2023-04-10T06:36:07.370Z,9.10
2023-04-10T06:38:42.551Z,9.00
2023-04-10T06:41:09.768Z,9.00
2023-04-10T06:43:39.327Z,9.00
2023-04-10T06:46:06.953Z,9.00
2023-04-10T06:48:34.930Z,9.00
2023-04-10T06:51:02.232Z,9.10
2023-04-10T06:53:30.064Z,9.10
2023-04-10T06:55:57.698Z,9.10
2023-04-10T06:58:25.192Z,9.20
2023-04-10T07:00:52.553Z,9.20
2023-04-10T07:03:20.114Z,9.20
2023-04-10T07:05:47.351Z,9.30
2023-04-10T07:08:14.659Z,9.20
2023-04-10T07:10:41.876Z,9.20
2023-04-10T07:13:09.160Z,9.20
2023-04-10T07:15:36.320Z,9.30
2023-04-10T07:18:03.900Z,9.30
2023-04-10T07:20:31.088Z,9.30
2023-04-10T07:22:58.398Z,9.20
2023-04-10T07:25:25.856Z,9.20
2023-04-10T07:27:53.259Z,9.30
2023-04-10T07:30:20.743Z,9.30
2023-04-10T07:32:48.504Z,9.40
2023-04-10T07:35:15.842Z,9.40
2023-04-10T07:37:44.170Z,9.30
2023-04-10T07:40:12.126Z,9.30
2023-04-10T07:42:39.564Z,9.40
2023-04-10T07:45:08.066Z,9.40
2023-04-10T07:47:35.395Z,9.40
2023-04-10T07:50:03.204Z,9.40
2023-04-10T07:52:30.851Z,9.40
2023-04-10T07:54:58.273Z,9.40
2023-04-10T07:57:25.615Z,9.40
2023-04-10T07:59:52.756Z,9.50
2023-04-10T08:02:20.396Z,9.50
2023-04-10T08:04:47.764Z,9.50
2023-04-10T08:07:15.304Z,9.50
2023-04-10T08:09:42.464Z,9.50
2023-04-10T08:12:09.748Z,9.50
2023-04-10T08:14:36.895Z,9.50
2023-04-10T08:17:04.437Z,9.50
2023-04-10T08:19:31.740Z,9.50
2023-04-10T08:21:59.007Z,9.50
2023-04-10T08:24:26.164Z,9.60
2023-04-10T08:26:53.442Z,9.50
2023-04-10T08:29:20.695Z,9.50
2023-04-10T08:31:47.990Z,9.50
2023-04-10T08:34:15.367Z,9.50
2023-04-10T08:36:42.773Z,9.50
2023-04-10T08:39:09.964Z,9.60
2023-04-10T08:41:37.358Z,9.60
2023-04-10T08:44:05.907Z,9.60
2023-04-10T08:46:37.540Z,9.60
2023-04-10T08:49:05.812Z,9.70
2023-04-10T08:51:42.933Z,9.70
2023-04-10T08:54:25.811Z,9.60
2023-04-10T08:56:55.871Z,9.70
2023-04-10T08:59:23.459Z,9.70
2023-04-10T09:01:50.940Z,9.80
2023-04-10T09:04:18.536Z,9.80
2023-04-10T09:06:47.198Z,9.80
2023-04-10T09:09:14.324Z,9.70
2023-04-10T09:11:56.372Z,9.70
2023-04-10T09:14:26.719Z,9.80
2023-04-10T09:17:10.417Z,9.80
2023-04-10T09:19:37.821Z,9.80
2023-04-10T09:22:05.439Z,9.80
2023-04-10T09:24:42.127Z,9.80
2023-04-10T09:27:10.743Z,9.90
2023-04-10T09:29:49.091Z,9.90
2023-04-10T09:32:48.939Z,10.00
2023-04-10T09:35:16.681Z,10.00
2023-04-10T09:37:46.614Z,10.10
2023-04-10T09:40:25.441Z,10.10
2023-04-10T09:42:55.931Z,10.10
2023-04-10T09:45:23.157Z,10.20
2023-04-10T09:48:08.053Z,10.30
2023-04-10T09:50:43.522Z,10.30
2023-04-10T09:53:19.265Z,10.30
2023-04-10T09:55:48.631Z,10.40
2023-04-10T09:58:17.998Z,10.40
2023-04-10T10:00:49.968Z,10.50
2023-04-10T10:03:21.399Z,10.50
2023-04-10T10:05:51.339Z,10.60
2023-04-10T10:08:19.034Z,10.60
2023-04-10T10:10:59.075Z,10.60
2023-04-10T10:13:44.480Z,10.60
2023-04-10T10:16:25.769Z,10.70
2023-04-10T10:19:16.659Z,10.70
2023-04-10T10:21:46.133Z,10.80
2023-04-10T10:24:15.906Z,10.90
2023-04-10T10:26:45.018Z,11.00
2023-04-10T10:29:17.223Z,11.00
2023-04-10T10:31:47.042Z,11.10
2023-04-10T10:34:16.499Z,11.20
2023-04-10T10:36:43.809Z,11.20
2023-04-10T10:39:39.575Z,11.30
2023-04-10T10:42:40.803Z,11.40
2023-04-10T10:45:50.387Z,11.40
2023-04-10T10:48:17.516Z,11.50
2023-04-10T10:51:00.914Z,11.50
2023-04-10T10:53:46.058Z,11.50
2023-04-10T10:56:35.063Z,11.60
2023-04-10T10:59:03.206Z,11.60
2023-04-10T11:01:30.581Z,11.60
2023-04-10T11:03:58.088Z,11.60
2023-04-10T11:06:51.303Z,11.70
2023-04-10T11:09:53.134Z,11.70
2023-04-10T11:12:26.158Z,11.80
2023-04-10T11:15:06.877Z,11.80
2023-04-10T11:17:52.468Z,11.80
2023-04-10T11:20:22.140Z,11.80
2023-04-10T11:23:11.246Z,11.80
2023-04-10T11:25:55.763Z,11.80
2023-04-10T11:28:32.798Z,12.00
2023-04-10T11:31:20.001Z,12.00
2023-04-10T11:34:05.207Z,12.00
2023-04-10T11:36:35.885Z,12.10
2023-04-10T11:39:09.923Z,12.20
2023-04-10T11:41:40.509Z,12.40
2023-04-10T11:44:11.656Z,12.60
2023-04-10T11:46:42.183Z,12.80
2023-04-10T11:49:11.104Z,12.90
2023-04-10T11:51:46.500Z,13.00
2023-04-10T11:54:18.622Z,13.10
2023-04-10T11:57:01.081Z,13.20
2023-04-10T11:59:31.001Z,13.40
2023-04-10T12:02:18.533Z,13.60
2023-04-10T12:04:46.789Z,13.90
2023-04-10T12:07:14.121Z,14.00
2023-04-10T12:09:42.697Z,14.10
2023-04-10T12:12:10.106Z,14.10
2023-04-10T12:14:40.647Z,14.10
2023-04-10T12:17:11.056Z,14.10
2023-04-10T12:19:40.129Z,14.20
2023-04-10T12:22:07.813Z,14.40
2023-04-10T12:24:53.730Z,14.50
2023-04-10T12:27:23.097Z,14.70
2023-04-10T12:29:53.100Z,14.80
2023-04-10T12:32:21.126Z,15.00
2023-04-10T12:34:57.524Z,15.20
2023-04-10T12:37:46.357Z,15.30
2023-04-10T12:40:14.608Z,15.40
2023-04-10T12:42:42.909Z,15.50
2023-04-10T12:45:13.823Z,15.70
2023-04-10T12:47:52.006Z,15.70
2023-04-10T12:50:23.548Z,15.70
2023-04-10T12:53:09.367Z,15.70
2023-04-10T12:55:37.555Z,15.90
2023-04-10T12:58:22.479Z,16.20
2023-04-10T13:00:50.438Z,16.50
2023-04-10T13:03:17.578Z,16.60
2023-04-10T13:05:46.009Z,16.60
2023-04-10T13:08:13.763Z,16.60
2023-04-10T13:10:42.242Z,16.80
2023-04-10T13:13:12.915Z,17.00
2023-04-10T13:15:40.959Z,17.00
2023-04-10T13:18:10.376Z,17.20
2023-04-10T13:20:40.139Z,17.30
2023-04-10T13:23:08.364Z,17.50
2023-04-10T13:25:42.910Z,17.70
2023-04-10T13:28:11.204Z,17.90
2023-04-10T13:30:41.383Z,18.10
2023-04-10T13:33:09.881Z,18.50
2023-04-10T13:35:37.556Z,18.60
2023-04-10T13:38:04.872Z,18.60
2023-04-10T13:40:32.319Z,18.80
2023-04-10T13:42:59.495Z,19.00
2023-04-10T13:45:27.016Z,19.00
2023-04-10T13:47:54.338Z,19.10
2023-04-10T13:50:21.814Z,19.20
2023-04-10T13:52:48.896Z,19.30
2023-04-10T13:55:16.466Z,19.40
2023-04-10T13:57:44.285Z,19.50
2023-04-10T14:00:12.424Z,19.50
2023-04-10T14:02:42.748Z,19.60
2023-04-10T14:05:10.916Z,19.70
2023-04-10T14:07:38.057Z,19.80
2023-04-10T14:10:06.994Z,19.90
2023-04-10T14:12:35.294Z,20.10
2023-04-10T14:15:04.000Z,20.20
2023-04-10T14:17:31.643Z,20.20
2023-04-10T14:19:59.063Z,20.30
2023-04-10T14:22:26.121Z,20.50
2023-04-10T14:25:05.141Z,20.50
2023-04-10T14:27:36.845Z,20.30
2023-04-10T14:30:05.312Z,20.40
2023-04-10T14:32:32.470Z,20.50
2023-04-10T14:34:59.810Z,20.50
2023-04-10T14:37:27.039Z,20.50
2023-04-10T14:39:54.295Z,20.80
2023-04-10T14:42:23.532Z,20.80
2023-04-10T14:44:50.838Z,20.80
2023-04-10T14:47:17.980Z,20.80
2023-04-10T14:49:45.412Z,20.70
2023-04-10T14:52:12.679Z,20.70
2023-04-10T14:54:40.231Z,20.80
2023-04-10T14:57:07.863Z,20.80
2023-04-10T14:59:35.678Z,21.00
2023-04-10T15:02:02.752Z,21.00
2023-04-10T15:04:30.273Z,20.80
2023-04-10T15:06:57.528Z,20.80
2023-04-10T15:09:25.231Z,20.80
2023-04-10T15:11:52.656Z,20.90
2023-04-10T15:14:19.991Z,21.00
2023-04-10T15:16:47.367Z,21.00
2023-04-10T15:19:14.732Z,20.90
2023-04-10T15:21:41.922Z,20.80
2023-04-10T15:24:09.236Z,20.60
2023-04-10T15:26:36.555Z,20.40
2023-04-10T15:29:04.108Z,19.90
2023-04-10T15:31:31.253Z,19.30
2023-04-10T15:33:58.571Z,18.90
2023-04-10T15:36:25.815Z,18.60
2023-04-10T15:38:53.283Z,18.40
2023-04-10T15:41:20.414Z,18.10
2023-04-10T15:43:48.604Z,17.90
2023-04-10T15:46:18.969Z,17.70
2023-04-10T15:48:46.424Z,17.60
2023-04-10T15:51:14.154Z,17.50
2023-04-10T15:53:41.695Z,17.30
2023-04-10T15:56:09.072Z,17.10
2023-04-10T15:58:36.767Z,17.00
2023-04-10T16:01:04.518Z,16.90
2023-04-10T16:03:32.154Z,16.80
2023-04-10T16:05:59.589Z,16.70
2023-04-10T16:08:27.558Z,16.70
2023-04-10T16:10:55.801Z,16.60
2023-04-10T16:13:23.355Z,16.60
2023-04-10T16:15:51.520Z,16.60
2023-04-10T16:18:19.196Z,16.50
2023-04-10T16:20:46.391Z,16.50
2023-04-10T16:23:13.688Z,16.40
2023-04-10T16:25:40.822Z,16.30
2023-04-10T16:28:09.296Z,16.30
2023-04-10T16:30:39.526Z,16.20
2023-04-10T16:33:07.336Z,16.20
2023-04-10T16:35:34.722Z,16.20
2023-04-10T16:38:02.575Z,16.10
2023-04-10T16:40:32.931Z,16.00
2023-04-10T16:43:01.843Z,15.90
2023-04-10T16:45:29.786Z,15.90
2023-04-10T16:47:57.656Z,15.90
2023-04-10T16:50:24.909Z,15.80
2023-04-10T16:52:52.745Z,15.80
2023-04-10T16:55:20.194Z,15.70
2023-04-10T16:57:47.904Z,15.60
2023-04-10T17:00:15.442Z,15.60
2023-04-10T17:02:43.176Z,15.50
2023-04-10T17:05:11.389Z,15.40
2023-04-10T17:07:38.934Z,15.40
2023-04-10T17:10:06.847Z,15.40
2023-04-10T17:12:34.376Z,15.30
2023-04-10T17:15:01.960Z,15.30
2023-04-10T17:17:29.766Z,15.20
2023-04-10T17:19:58.452Z,15.20
2023-04-10T17:22:26.162Z,15.10
2023-04-10T17:24:53.439Z,15.10
2023-04-10T17:27:20.878Z,15.10
2023-04-10T17:29:48.331Z,15.00
2023-04-10T17:32:15.661Z,15.00
2023-04-10T17:34:42.854Z,14.90
2023-04-10T17:37:10.253Z,14.90
2023-04-10T17:39:37.284Z,14.80
2023-04-10T17:42:05.085Z,14.80
2023-04-10T17:44:32.322Z,14.70
2023-04-10T17:47:01.358Z,14.70
2023-04-10T17:49:28.514Z,14.60
2023-04-10T17:51:55.841Z,14.60
2023-04-10T17:54:22.899Z,14.60
2023-04-10T17:56:52.892Z,14.50
2023-04-10T17:59:20.194Z,14.50
2023-04-10T18:01:48.213Z,14.50
2023-04-10T18:04:16.084Z,14.40
2023-04-10T18:06:43.711Z,14.30
2023-04-10T18:09:11.458Z,14.30
2023-04-10T18:11:40.604Z,14.30
2023-04-10T18:14:07.881Z,13.40
2023-04-10T18:16:36.091Z,13.50
2023-04-10T18:19:03.530Z,13.10
2023-04-10T18:21:31.483Z,12.90
2023-04-10T18:23:58.919Z,11.80
2023-04-10T18:26:29.682Z,12.10
2023-04-10T18:28:57.478Z,11.90
2023-04-10T18:31:24.979Z,11.20
2023-04-10T18:34:00.226Z,11.50
2023-04-10T18:36:34.741Z,12.20
2023-04-10T18:39:02.098Z,12.60
2023-04-10T18:41:29.740Z,12.90
2023-04-10T18:44:05.026Z,13.00
2023-04-10T18:46:33.754Z,13.10
2023-04-10T18:49:01.597Z,13.10
2023-04-10T18:51:34.983Z,13.10
2023-04-10T18:54:06.115Z,13.20
2023-04-10T18:56:35.661Z,13.10
2023-04-10T18:59:04.225Z,13.20
2023-04-10T19:01:31.992Z,13.10
2023-04-10T19:03:59.724Z,13.10
2023-04-10T19:06:27.993Z,13.10
2023-04-10T19:08:55.796Z,13.00
2023-04-10T19:11:23.238Z,13.00
2023-04-10T19:13:50.476Z,12.90
2023-04-10T19:16:19.411Z,12.90
2023-04-10T19:18:49.842Z,12.90
2023-04-10T19:21:17.605Z,12.80
2023-04-10T19:23:45.287Z,12.80
2023-04-10T19:26:12.954Z,12.70
2023-04-10T19:28:40.427Z,12.60
2023-04-10T19:31:09.025Z,12.70
2023-04-10T19:33:36.411Z,12.60
2023-04-10T19:36:05.128Z,12.60
2023-04-10T19:38:34.967Z,12.60
2023-04-10T19:41:02.675Z,12.60
2023-04-10T19:43:29.940Z,12.60
2023-04-10T19:45:59.681Z,12.60
2023-04-10T19:48:27.704Z,12.50
2023-04-10T19:50:55.340Z,12.50
2023-04-10T19:53:22.590Z,12.50
2023-04-10T19:55:50.109Z,12.40
2023-04-10T19:58:35.624Z,12.40
2023-04-10T20:01:12.332Z,12.30
2023-04-10T20:03:39.764Z,12.30
2023-04-10T20:06:08.235Z,12.20
2023-04-10T20:08:36.506Z,12.20
2023-04-10T20:11:07.099Z,12.10
2023-04-10T20:13:34.790Z,12.10
2023-04-10T20:16:02.673Z,12.00
2023-04-10T20:18:31.923Z,11.90
2023-04-10T20:20:59.414Z,11.80
2023-04-10T20:23:26.765Z,11.80
2023-04-10T20:25:54.121Z,11.80
2023-04-10T20:28:21.461Z,11.70
2023-04-10T20:30:48.761Z,11.70
2023-04-10T20:33:15.793Z,11.70
2023-04-10T20:35:43.161Z,11.60
2023-04-10T20:38:10.618Z,11.60
2023-04-10T20:40:37.882Z,11.60
2023-04-10T20:43:10.921Z,11.50
2023-04-10T20:45:39.358Z,11.50
2023-04-10T20:48:08.126Z,11.40
2023-04-10T20:50:36.987Z,11.40
2023-04-10T20:53:04.123Z,11.40
2023-04-10T20:55:31.499Z,11.30
2023-04-10T20:57:58.678Z,11.20
2023-04-10T21:00:26.164Z,11.20
2023-04-10T21:02:53.330Z,11.10
2023-04-10T21:05:21.148Z,11.10
2023-04-10T21:07:48.404Z,11.10
2023-04-10T21:10:15.989Z,11.00
2023-04-10T21:12:43.401Z,10.90
2023-04-10T21:15:11.096Z,10.90
2023-04-10T21:17:38.193Z,10.90
2023-04-10T21:20:06.435Z,10.90
2023-04-10T21:22:33.690Z,10.80
2023-04-10T21:25:01.032Z,10.70
2023-04-10T21:27:28.216Z,10.70
2023-04-10T21:29:55.686Z,10.70
2023-04-10T21:32:22.826Z,10.60
2023-04-10T21:34:50.255Z,10.60
2023-04-10T21:37:17.353Z,10.50
2023-04-10T21:39:44.776Z,10.50
2023-04-10T21:42:11.947Z,10.40
2023-04-10T21:44:39.372Z,10.40
2023-04-10T21:47:06.603Z,10.30
2023-04-10T21:49:34.252Z,10.20
2023-04-10T21:52:06.684Z,10.20
2023-04-10T21:54:34.077Z,10.10
2023-04-10T21:57:02.299Z,10.10
2023-04-10T21:59:33.179Z,10.00
2023-04-10T22:02:00.392Z,10.00
2023-04-10T22:04:27.772Z,10.00
2023-04-10T22:06:54.852Z,9.90
2023-04-10T22:09:22.517Z,9.90
2023-04-10T22:11:49.738Z,9.90
2023-04-10T22:14:19.355Z,9.80
2023-04-10T22:16:47.946Z,9.80
2023-04-10T22:19:15.464Z,9.80
2023-04-10T22:21:42.623Z,9.70
2023-04-10T22:24:10.159Z,9.60
2023-04-10T22:26:37.291Z,9.60
2023-04-10T22:29:04.903Z,9.50
2023-04-10T22:31:32.124Z,9.50
2023-04-10T22:33:59.421Z,9.40
2023-04-10T22:36:35.803Z,9.40
2023-04-10T22:39:04.040Z,9.40
2023-04-10T22:41:31.803Z,9.30
2023-04-10T22:43:59.510Z,9.30
2023-04-10T22:46:26.789Z,9.30
2023-04-10T22:48:55.014Z,9.20
2023-04-10T22:51:22.302Z,9.20
2023-04-10T22:53:50.038Z,9.20
2023-04-10T22:56:18.206Z,9.10
2023-04-10T22:58:45.620Z,9.10
2023-04-10T23:01:13.320Z,9.00
2023-04-10T23:03:41.141Z,9.00
2023-04-10T23:06:08.995Z,8.90
2023-04-10T23:08:37.154Z,8.80
2023-04-10T23:11:04.464Z,8.70
2023-04-10T23:13:32.131Z,8.70
2023-04-10T23:15:59.208Z,8.80
2023-04-10T23:18:26.670Z,8.70
2023-04-10T23:20:53.898Z,8.70
2023-04-10T23:23:21.344Z,8.70
2023-04-10T23:25:58.863Z,8.60
2023-04-10T23:28:27.508Z,8.60
2023-04-10T23:30:54.704Z,8.60
2023-04-10T23:33:22.277Z,8.60
2023-04-10T23:35:49.479Z,8.50
2023-04-10T23:38:16.883Z,8.50
2023-04-10T23:40:43.962Z,8.50
2023-04-10T23:43:11.379Z,8.40
2023-04-10T23:45:38.528Z,8.40
2023-04-10T23:48:08.834Z,8.30
2023-04-10T23:50:36.084Z,8.30
2023-04-10T23:53:03.549Z,8.20
2023-04-10T23:55:30.679Z,8.20
2023-04-10T23:57:58.000Z,8.10
